Time,TemperatureF,DewpointF,PressureIn,WindDirection,WindDirectionDegrees,WindSpeedMPH,WindSpeedGustMPH,Humidity,HourlyPrecipIn,Conditions,Clouds,dailyrainin,SolarRadiationWatts/m^2,SoftwareType,DateUTC
2013-05-11 00:01:00,55.0,45.0,-100.00,ESE,105,3.0,7.0,70,0.00,,,0.00,0.000000,,2013-05-11 07:01:00,
2013-05-11 00:11:00,55.0,45.0,-100.00,ESE,105,3.0,7.0,70,0.00,,,0.00,0.000000,,2013-05-11 07:11:00,
2013-05-11 01:01:00,56.0,46.0,-100.00,SE,124,3.0,6.0,69,-99.99,,,0.00,0.000000,,2013-05-11 08:01:00,
2013-05-11 01:12:00,56.0,46.0,-100.00,SE,124,3.0,6.0,69,-99.99,,,0.00,0.000000,,2013-05-11 08:12:00,
2013-05-11 02:01:00,54.0,43.0,-100.00,SE,130,2.0,6.0,67,-99.99,,,0.00,0.000000,,2013-05-11 09:01:00,
2013-05-11 03:03:00,55.0,45.0,-100.00,SE,127,3.0,6.0,69,-99.99,,,0.00,0.000000,,2013-05-11 10:03:00,
2013-05-11 03:12:00,55.0,45.0,-100.00,SE,127,3.0,6.0,69,-99.99,,,0.00,0.000000,,2013-05-11 10:12:00,
2013-05-11 03:22:00,55.0,45.0,-100.00,SE,127,3.0,6.0,69,-99.99,,,0.00,0.000000,,2013-05-11 10:22:00,
2013-05-11 04:02:00,54.0,45.0,-100.00,ESE,122,2.0,6.0,72,-99.99,,,0.00,0.000000,,2013-05-11 11:02:00,
2013-05-11 05:01:00,53.0,43.0,-100.00,ESE,122,0.0,5.0,68,-99.99,,,-99.99,0.000000,,2013-05-11 12:01:00,
2013-05-11 06:01:00,52.0,41.0,-100.00,ESE,123,0.0,5.0,66,-99.99,,,-99.99,0.000000,,2013-05-11 13:01:00,
2013-05-11 07:02:00,55.0,42.0,-100.00,ESE,120,2.0,5.0,61,-99.99,,,0.00,10.000000,,2013-05-11 14:02:00,
2013-05-11 08:01:00,62.0,45.0,-100.00,SE,126,0.0,6.0,54,-99.99,,,0.00,31.000000,,2013-05-11 15:01:00,
2013-05-11 08:11:00,62.0,45.0,-100.00,SE,126,0.0,6.0,54,-99.99,,,0.00,31.000000,,2013-05-11 15:11:00,
2013-05-11 09:02:00,76.0,38.0,-100.00,NE,45,3.0,8.0,25,-99.99,,,0.00,476.000000,,2013-05-11 16:02:00,
2013-05-11 09:12:00,76.0,38.0,-100.00,NE,45,3.0,8.0,25,-99.99,,,0.00,476.000000,,2013-05-11 16:12:00,
2013-05-11 09:22:00,76.0,38.0,-100.00,NE,45,3.0,8.0,25,-99.99,,,0.00,476.000000,,2013-05-11 16:22:00,
2013-05-11 09:32:00,76.0,38.0,-100.00,NE,45,3.0,8.0,25,-99.99,,,0.00,476.000000,,2013-05-11 16:32:00,
2013-05-11 10:02:00,78.0,35.0,-100.00,North,0,4.0,12.0,21,0.00,,,0.00,822.000000,,2013-05-11 17:02:00,
2013-05-11 10:12:00,78.0,35.0,-100.00,North,0,4.0,12.0,21,0.00,,,0.00,822.000000,,2013-05-11 17:12:00,
2013-05-11 10:22:00,78.0,35.0,-100.00,North,0,4.0,12.0,21,0.00,,,0.00,822.000000,,2013-05-11 17:22:00,
2013-05-11 10:31:00,78.0,35.0,-100.00,North,0,4.0,12.0,21,0.00,,,0.00,822.000000,,2013-05-11 17:31:00,
2013-05-11 11:01:00,80.0,35.0,-100.00,NNE,23,7.0,16.0,20,0.00,,,0.00,1058.000000,,2013-05-11 18:01:00,
2013-05-11 11:11:00,80.0,35.0,-100.00,NNE,23,7.0,16.0,20,0.00,,,0.00,1058.000000,,2013-05-11 18:11:00,
2013-05-11 11:21:00,80.0,35.0,-100.00,NNE,23,7.0,16.0,20,0.00,,,0.00,1058.000000,,2013-05-11 18:21:00,
2013-05-11 11:32:00,80.0,35.0,-100.00,NNE,23,7.0,16.0,20,0.00,,,0.00,1058.000000,,2013-05-11 18:32:00,
2013-05-11 12:02:00,80.0,33.0,-100.00,NE,34,7.0,16.0,18,0.00,,,0.00,1234.000000,,2013-05-11 19:02:00,
2013-05-11 12:11:00,80.0,33.0,-100.00,NE,34,7.0,16.0,18,0.00,,,0.00,1234.000000,,2013-05-11 19:11:00,
2013-05-11 12:21:00,80.0,33.0,-100.00,NE,34,7.0,16.0,18,0.00,,,0.00,1234.000000,,2013-05-11 19:21:00,
2013-05-11 12:32:00,80.0,33.0,-100.00,NE,34,7.0,16.0,18,0.00,,,0.00,1234.000000,,2013-05-11 19:32:00,
2013-05-11 13:01:00,83.0,31.0,-100.00,NNW,348,4.0,19.0,15,0.00,,,0.00,1331.000000,,2013-05-11 20:01:00,
2013-05-11 13:12:00,83.0,31.0,-100.00,NNW,348,4.0,19.0,15,0.00,,,0.00,1331.000000,,2013-05-11 20:12:00,
2013-05-11 13:22:00,83.0,31.0,-100.00,NNW,348,4.0,19.0,15,0.00,,,0.00,1331.000000,,2013-05-11 20:22:00,
2013-05-11 13:32:00,83.0,31.0,-100.00,NNW,348,4.0,19.0,15,0.00,,,0.00,1331.000000,,2013-05-11 20:32:00,
2013-05-11 14:02:00,83.0,31.0,-100.00,ENE,69,3.0,17.0,15,0.00,,,0.00,1340.000000,,2013-05-11 21:02:00,
2013-05-11 14:11:00,83.0,31.0,-100.00,ENE,69,3.0,17.0,15,0.00,,,0.00,1340.000000,,2013-05-11 21:11:00,
2013-05-11 14:21:00,83.0,31.0,-100.00,ENE,69,3.0,17.0,15,0.00,,,0.00,1340.000000,,2013-05-11 21:21:00,
2013-05-11 14:33:00,83.0,31.0,-100.00,ENE,69,3.0,17.0,15,0.00,,,0.00,1340.000000,,2013-05-11 21:33:00,
2013-05-11 15:02:00,84.0,31.0,-100.00,NE,48,4.0,18.0,15,0.00,,,0.00,1281.000000,,2013-05-11 22:02:00,
2013-05-11 15:12:00,84.0,31.0,-100.00,NE,48,4.0,18.0,15,0.00,,,0.00,1281.000000,,2013-05-11 22:12:00,
2013-05-11 15:22:00,84.0,31.0,-100.00,NE,48,4.0,18.0,15,0.00,,,0.00,1281.000000,,2013-05-11 22:22:00,
2013-05-11 15:33:00,84.0,31.0,-100.00,NE,48,4.0,18.0,15,0.00,,,0.00,1281.000000,,2013-05-11 22:33:00,
2013-05-11 16:02:00,85.0,30.0,-100.00,North,358,3.0,17.0,14,0.00,,,0.00,1144.000000,,2013-05-11 23:02:00,
2013-05-11 16:11:00,85.0,30.0,-100.00,North,358,3.0,17.0,14,0.00,,,0.00,1144.000000,,2013-05-11 23:11:00,
2013-05-11 16:22:00,85.0,30.0,-100.00,North,358,3.0,17.0,14,0.00,,,0.00,1144.000000,,2013-05-11 23:22:00,
2013-05-11 16:31:00,85.0,30.0,-100.00,North,358,3.0,17.0,14,0.00,,,0.00,1144.000000,,2013-05-11 23:31:00,
2013-05-11 17:01:00,84.0,28.0,-100.00,North,353,5.0,17.0,13,0.00,,,0.00,940.000000,,2013-05-12 00:01:00,
2013-05-11 17:11:00,84.0,28.0,-100.00,North,353,5.0,17.0,13,0.00,,,0.00,940.000000,,2013-05-12 00:11:00,
2013-05-11 17:21:00,84.0,28.0,-100.00,North,353,5.0,17.0,13,0.00,,,0.00,940.000000,,2013-05-12 00:21:00,
2013-05-11 17:32:00,84.0,28.0,-100.00,North,353,5.0,17.0,13,0.00,,,0.00,940.000000,,2013-05-12 00:32:00,
2013-05-11 18:01:00,81.0,36.0,-100.00,ENE,60,2.0,9.0,20,0.00,,,0.00,671.000000,,2013-05-12 01:01:00,
2013-05-11 18:11:00,81.0,36.0,-100.00,ENE,60,2.0,9.0,20,0.00,,,0.00,671.000000,,2013-05-12 01:11:00,
2013-05-11 18:21:00,81.0,36.0,-100.00,ENE,60,2.0,9.0,20,0.00,,,0.00,671.000000,,2013-05-12 01:21:00,
2013-05-11 18:31:00,81.0,36.0,-100.00,ENE,60,2.0,9.0,20,0.00,,,0.00,671.000000,,2013-05-12 01:31:00,
2013-05-11 19:01:00,77.0,38.0,-100.00,West,260,1.0,10.0,25,0.00,,,0.00,378.000000,,2013-05-12 02:01:00,
2013-05-11 19:11:00,77.0,38.0,-100.00,West,260,1.0,10.0,25,0.00,,,0.00,378.000000,,2013-05-12 02:11:00,
2013-05-11 19:22:00,77.0,38.0,-100.00,West,260,1.0,10.0,25,0.00,,,0.00,378.000000,,2013-05-12 02:22:00,
2013-05-11 19:31:00,77.0,38.0,-100.00,West,260,1.0,10.0,25,0.00,,,0.00,378.000000,,2013-05-12 02:31:00,
2013-05-11 20:01:00,69.0,46.0,-100.00,SE,125,0.0,5.0,44,0.00,,,0.00,94.000000,,2013-05-12 03:01:00,
2013-05-11 20:11:00,69.0,46.0,-100.00,SE,125,0.0,5.0,44,0.00,,,0.00,94.000000,,2013-05-12 03:11:00,
2013-05-11 20:21:00,69.0,46.0,-100.00,SE,125,0.0,5.0,44,0.00,,,0.00,94.000000,,2013-05-12 03:21:00,
2013-05-11 20:32:00,69.0,46.0,-100.00,SE,125,0.0,5.0,44,0.00,,,0.00,94.000000,,2013-05-12 03:32:00,
2013-05-11 21:02:00,-999.0,-99.9,-100.00,ESE,117,2.0,6.0,54,0.00,,,0.00,1.000000,,2013-05-12 04:02:00,
2013-05-11 22:02:00,61.0,42.0,-100.00,ESE,117,3.0,6.0,50,-99.99,,,0.00,0.000000,,2013-05-12 05:02:00,
2013-05-11 23:01:00,60.0,39.0,-100.00,ESE,117,1.0,7.0,46,-99.99,,,0.00,0.000000,,2013-05-12 06:01:00,